Tawakoni's Hourly Summary for Wednesday, April 19, 2017
Hour Temp
(f)
RH
(%)
Solar Rad.
(MJ/m2)
Rainfall
(in)
Wind
(mph)
4/19/2017 12:00 AM 64 90 0.01 0 3.02
4/19/2017 1:00 AM 64 92 0.01 0 3.06
4/19/2017 2:00 AM 64 93 0.01 0 3.4
4/19/2017 3:00 AM 63 95 0.02 0.01 2.83
4/19/2017 4:00 AM 63 95 0.01 0 3.79
4/19/2017 5:00 AM 63 96 0.01 0 4.8
4/19/2017 6:00 AM 63 96 0.01 0 5.56
4/19/2017 7:00 AM 64 96 0.01 0 4.67
4/19/2017 8:00 AM 64 93 0.18 0 5.25
4/19/2017 9:00 AM 67 85 0.76 0 5.93
4/19/2017 10:00 AM 68 84 0.75 0 6.61
4/19/2017 11:00 AM 69 82 0.99 0 5.48
4/19/2017 12:00 PM 70 80 1.13 0 6.7
4/19/2017 1:00 PM 70 81 1.24 0 6.45
4/19/2017 2:00 PM 73 65 2.52 0 8.09
4/19/2017 3:00 PM 77 61 2.83 0 7.86
4/19/2017 4:00 PM 78 58 2.17 0 8.43
4/19/2017 5:00 PM 79 57 2.16 0 8.61
4/19/2017 6:00 PM 80 56 1.73 0 7.37
4/19/2017 7:00 PM 78 58 0.67 0 5.61
4/19/2017 8:00 PM 75 70 0.14 0 4.22
4/19/2017 9:00 PM 73 78 0 0 5.22
4/19/2017 10:00 PM 72 80 0 0 6.81
4/19/2017 11:00 PM 70 80 0 0 6.82
Data Summary 69 80 17.36 0.01 5.69